createdAt,value
2023-02-26T00:01:31.483Z,100.00
2023-02-26T00:04:02.114Z,100.00
2023-02-26T00:06:31.926Z,100.00
2023-02-26T00:08:59.339Z,100.00
2023-02-26T00:11:26.785Z,100.00
2023-02-26T00:13:54.569Z,100.00
2023-02-26T00:16:33.545Z,100.00
2023-02-26T00:19:04.289Z,100.00
2023-02-26T00:21:32.149Z,100.00
2023-02-26T00:24:00.419Z,100.00
2023-02-26T00:26:31.076Z,100.00
2023-02-26T00:28:58.952Z,100.00
2023-02-26T00:31:27.729Z,100.00
2023-02-26T00:33:58.432Z,100.00
2023-02-26T00:36:40.935Z,100.00
2023-02-26T00:39:29.927Z,100.00
2023-02-26T00:41:58.174Z,100.00
2023-02-26T00:44:26.624Z,100.00
2023-02-26T00:47:03.870Z,100.00
2023-02-26T00:49:46.046Z,100.00
2023-02-26T00:53:05.727Z,100.00
2023-02-26T00:55:32.810Z,100.00
2023-02-26T00:57:59.872Z,100.00
2023-02-26T01:00:28.577Z,100.00
2023-02-26T01:02:56.548Z,100.00
2023-02-26T01:05:23.967Z,100.00
2023-02-26T01:08:00.216Z,100.00
2023-02-26T01:10:28.450Z,100.00
2023-02-26T01:12:57.541Z,100.00
2023-02-26T01:15:24.993Z,100.00
2023-02-26T01:18:11.768Z,100.00
2023-02-26T01:20:46.288Z,100.00
2023-02-26T01:23:16.654Z,100.00
2023-02-26T01:25:59.339Z,100.00
2023-02-26T01:28:27.622Z,100.00
2023-02-26T01:31:00.745Z,100.00
2023-02-26T01:33:44.516Z,100.00
2023-02-26T01:36:27.063Z,100.00
2023-02-26T01:39:18.054Z,100.00
2023-02-26T01:41:52.125Z,100.00
2023-02-26T01:44:54.606Z,100.00
2023-02-26T01:47:56.949Z,100.00
2023-02-26T01:50:29.924Z,100.00
2023-02-26T01:53:25.864Z,100.00
2023-02-26T01:56:01.749Z,100.00
2023-02-26T01:58:33.446Z,100.00
2023-02-26T02:01:01.316Z,100.00
2023-02-26T02:03:32.168Z,100.00
2023-02-26T02:06:12.088Z,100.00
2023-02-26T02:08:39.471Z,100.00
2023-02-26T02:11:09.806Z,100.00
2023-02-26T02:13:51.900Z,100.00
2023-02-26T02:16:37.303Z,100.00
2023-02-26T02:19:22.788Z,100.00
2023-02-26T02:22:20.176Z,100.00
2023-02-26T02:25:14.961Z,100.00
2023-02-26T02:28:15.545Z,100.00
2023-02-26T02:31:09.922Z,100.00
2023-02-26T02:33:52.064Z,100.00
2023-02-26T02:36:45.140Z,100.00
2023-02-26T02:39:36.349Z,100.00
2023-02-26T02:42:09.225Z,100.00
2023-02-26T02:44:41.923Z,100.00
2023-02-26T02:47:11.567Z,100.00
2023-02-26T02:49:46.343Z,100.00
2023-02-26T02:52:19.296Z,100.00
2023-02-26T02:54:55.683Z,100.00
2023-02-26T02:57:28.733Z,100.00
2023-02-26T03:00:01.065Z,100.00
2023-02-26T03:02:39.892Z,100.00
2023-02-26T03:05:07.929Z,100.00
2023-02-26T03:07:54.611Z,100.00
2023-02-26T03:10:22.027Z,100.00
2023-02-26T03:12:49.098Z,100.00
2023-02-26T03:15:22.758Z,100.00
2023-02-26T03:18:00.708Z,100.00
2023-02-26T03:20:33.899Z,100.00
2023-02-26T03:23:06.092Z,100.00
2023-02-26T03:25:45.440Z,100.00
2023-02-26T03:28:31.453Z,100.00
2023-02-26T03:31:07.410Z,100.00
2023-02-26T03:34:00.741Z,100.00
2023-02-26T03:36:53.275Z,100.00
2023-02-26T03:39:29.726Z,100.00
2023-02-26T03:42:00.505Z,100.00
2023-02-26T03:44:35.146Z,100.00
2023-02-26T03:47:08.037Z,100.00
2023-02-26T03:49:41.573Z,100.00
2023-02-26T03:52:08.913Z,100.00
2023-02-26T03:54:41.442Z,100.00
2023-02-26T03:57:08.562Z,100.00
2023-02-26T03:59:35.987Z,100.00
2023-02-26T04:02:14.293Z,100.00
2023-02-26T04:04:47.344Z,100.00
2023-02-26T04:07:17.020Z,100.00
2023-02-26T04:09:47.656Z,100.00
2023-02-26T04:12:15.500Z,100.00
2023-02-26T04:14:42.583Z,100.00
2023-02-26T04:17:09.728Z,100.00
2023-02-26T04:19:36.758Z,100.00
2023-02-26T04:22:03.936Z,100.00
2023-02-26T04:24:31.018Z,100.00
2023-02-26T04:26:58.976Z,100.00
2023-02-26T04:29:26.056Z,100.00
2023-02-26T04:31:53.738Z,100.00
2023-02-26T04:34:20.856Z,100.00
2023-02-26T04:36:47.965Z,100.00
2023-02-26T04:39:15.067Z,100.00
2023-02-26T04:41:42.106Z,100.00
2023-02-26T04:44:09.221Z,100.00
2023-02-26T04:46:36.505Z,100.00
2023-02-26T04:49:03.628Z,100.00
2023-02-26T04:51:30.939Z,100.00
2023-02-26T04:53:58.137Z,100.00
2023-02-26T04:56:26.689Z,100.00
2023-02-26T04:58:53.884Z,100.00
2023-02-26T05:01:20.922Z,100.00
2023-02-26T05:03:48.044Z,100.00
2023-02-26T05:06:15.172Z,100.00
2023-02-26T05:08:44.077Z,100.00
2023-02-26T05:11:11.755Z,100.00
2023-02-26T05:13:39.290Z,100.00
2023-02-26T05:16:08.084Z,100.00
2023-02-26T05:18:35.184Z,100.00
2023-02-26T05:21:02.600Z,100.00
2023-02-26T05:23:29.701Z,100.00
2023-02-26T05:25:58.955Z,100.00
2023-02-26T05:28:28.173Z,100.00
2023-02-26T05:30:58.505Z,100.00
2023-02-26T05:33:27.289Z,100.00
2023-02-26T05:35:54.597Z,100.00
2023-02-26T05:38:24.129Z,100.00
2023-02-26T05:40:51.169Z,100.00
2023-02-26T05:43:18.246Z,100.00
2023-02-26T05:45:45.370Z,100.00
2023-02-26T05:48:13.239Z,100.00
2023-02-26T05:50:40.328Z,100.00
2023-02-26T05:53:07.388Z,100.00
2023-02-26T05:55:34.483Z,100.00
2023-02-26T05:58:01.798Z,100.00
2023-02-26T06:00:28.908Z,100.00
2023-02-26T06:02:57.413Z,100.00
2023-02-26T06:05:24.497Z,100.00
2023-02-26T06:07:51.522Z,100.00
2023-02-26T06:10:18.645Z,100.00
2023-02-26T06:12:45.766Z,100.00
2023-02-26T06:15:13.048Z,100.00
2023-02-26T06:17:41.039Z,100.00
2023-02-26T06:20:09.439Z,100.00
2023-02-26T06:22:36.658Z,100.00
2023-02-26T06:25:04.570Z,100.00
2023-02-26T06:27:31.621Z,100.00
2023-02-26T06:29:58.704Z,100.00
2023-02-26T06:32:30.568Z,100.00
2023-02-26T06:35:00.783Z,100.00
2023-02-26T06:37:28.697Z,100.00
2023-02-26T06:39:55.736Z,100.00
2023-02-26T06:42:23.315Z,100.00
2023-02-26T06:44:50.479Z,100.00
2023-02-26T06:47:17.520Z,100.00
2023-02-26T06:49:44.570Z,100.00
2023-02-26T06:52:11.724Z,100.00
2023-02-26T06:54:38.824Z,100.00
2023-02-26T06:57:05.900Z,100.00
2023-02-26T06:59:33.153Z,100.00
2023-02-26T07:02:00.679Z,100.00
2023-02-26T07:04:28.695Z,100.00
2023-02-26T07:06:55.780Z,100.00
2023-02-26T07:09:22.938Z,100.00
2023-02-26T07:11:50.117Z,100.00
2023-02-26T07:14:17.392Z,100.00
2023-02-26T07:16:44.582Z,100.00
2023-02-26T07:19:11.613Z,100.00
2023-02-26T07:21:38.666Z,100.00
2023-02-26T07:24:06.466Z,100.00
2023-02-26T07:26:33.598Z,100.00
2023-02-26T07:29:00.708Z,100.00
2023-02-26T07:31:28.882Z,100.00
2023-02-26T07:33:56.067Z,100.00
2023-02-26T07:36:23.554Z,100.00
2023-02-26T07:38:50.826Z,100.00
2023-02-26T07:41:17.941Z,100.00
2023-02-26T07:43:45.045Z,100.00
2023-02-26T07:46:12.394Z,100.00
2023-02-26T07:48:39.528Z,100.00
2023-02-26T07:51:07.866Z,100.00
2023-02-26T07:53:35.019Z,100.00
2023-02-26T07:56:02.165Z,100.00
2023-02-26T07:58:29.274Z,100.00
2023-02-26T08:00:57.458Z,100.00
2023-02-26T08:03:24.446Z,100.00
2023-02-26T08:05:51.968Z,100.00
2023-02-26T08:08:19.086Z,100.00
2023-02-26T08:10:46.167Z,100.00
2023-02-26T08:13:13.339Z,100.00
2023-02-26T08:15:43.850Z,100.00
2023-02-26T08:18:12.124Z,100.00
2023-02-26T08:20:40.080Z,100.00
2023-02-26T08:23:07.209Z,100.00
2023-02-26T08:25:34.395Z,100.00
2023-02-26T08:28:03.246Z,100.00
2023-02-26T08:30:30.447Z,100.00
2023-02-26T08:32:58.491Z,100.00
2023-02-26T08:35:25.668Z,100.00
2023-02-26T08:37:55.562Z,100.00
2023-02-26T08:40:23.397Z,100.00
2023-02-26T08:42:50.435Z,100.00
2023-02-26T08:45:17.622Z,100.00
2023-02-26T08:47:56.087Z,100.00
2023-02-26T08:50:25.862Z,100.00
2023-02-26T08:52:53.404Z,100.00
2023-02-26T08:55:21.272Z,100.00
2023-02-26T08:57:48.371Z,100.00
2023-02-26T09:00:24.501Z,100.00
2023-02-26T09:02:52.209Z,100.00
2023-02-26T09:05:19.338Z,100.00
2023-02-26T09:07:46.392Z,100.00
2023-02-26T09:10:14.394Z,100.00
2023-02-26T09:12:41.778Z,100.00
2023-02-26T09:15:10.543Z,95.57
2023-02-26T09:17:38.325Z,94.83
2023-02-26T09:20:06.194Z,97.77
2023-02-26T09:22:33.220Z,98.92
2023-02-26T09:25:00.630Z,95.45
2023-02-26T09:27:28.791Z,88.25
2023-02-26T09:29:55.808Z,86.40
2023-02-26T09:32:23.658Z,85.35
2023-02-26T09:34:51.201Z,84.68
2023-02-26T09:37:18.917Z,89.93
2023-02-26T09:39:46.522Z,87.46
2023-02-26T09:42:27.910Z,91.30
2023-02-26T09:44:59.938Z,83.82
2023-02-26T09:47:39.339Z,85.84
2023-02-26T09:50:13.291Z,83.20
2023-02-26T09:52:47.010Z,84.25
2023-02-26T09:55:23.192Z,81.48
2023-02-26T09:57:53.252Z,83.73
2023-02-26T10:00:20.303Z,86.57
2023-02-26T10:03:17.820Z,84.77
2023-02-26T10:06:19.504Z,85.43
2023-02-26T10:09:00.890Z,82.88
2023-02-26T10:11:43.678Z,81.00
2023-02-26T10:14:16.683Z,81.26
2023-02-26T10:16:50.010Z,85.82
2023-02-26T10:19:20.948Z,78.67
2023-02-26T10:21:48.048Z,77.91
2023-02-26T10:24:37.522Z,71.99
2023-02-26T10:27:10.103Z,70.31
2023-02-26T10:29:45.777Z,73.02
2023-02-26T10:32:43.473Z,70.43
2023-02-26T10:35:15.467Z,67.70
2023-02-26T10:37:51.283Z,70.38
2023-02-26T10:40:36.731Z,69.99
2023-02-26T10:43:09.688Z,67.54
2023-02-26T10:45:54.814Z,67.39
2023-02-26T10:48:32.284Z,67.17
2023-02-26T10:51:01.657Z,67.28
2023-02-26T10:53:31.649Z,66.38
2023-02-26T10:56:10.270Z,63.03
2023-02-26T10:58:37.587Z,63.09
2023-02-26T11:01:11.234Z,65.41
2023-02-26T11:03:40.426Z,66.89
2023-02-26T11:06:07.902Z,63.96
2023-02-26T11:08:42.763Z,66.53
2023-02-26T11:11:10.032Z,63.15
2023-02-26T11:13:38.755Z,59.81
2023-02-26T11:16:13.785Z,60.67
2023-02-26T11:18:54.929Z,62.10
2023-02-26T11:21:34.886Z,62.68
2023-02-26T11:24:07.030Z,61.93
2023-02-26T11:26:38.802Z,59.53
2023-02-26T11:29:06.410Z,61.98
2023-02-26T11:31:34.048Z,61.38
2023-02-26T11:34:08.421Z,59.37
2023-02-26T11:36:40.476Z,59.65
2023-02-26T11:39:13.512Z,61.95
2023-02-26T11:41:41.204Z,60.67
2023-02-26T11:44:14.312Z,62.07
2023-02-26T11:46:53.132Z,62.64
2023-02-26T11:49:23.870Z,60.81
2023-02-26T11:52:26.438Z,61.23
2023-02-26T11:55:00.705Z,61.42
2023-02-26T11:57:30.357Z,61.66
2023-02-26T12:00:01.427Z,62.85
2023-02-26T12:02:37.080Z,62.37
2023-02-26T12:05:07.022Z,61.25
2023-02-26T12:07:34.348Z,60.37
2023-02-26T12:10:01.748Z,59.95
2023-02-26T12:12:43.855Z,61.79
2023-02-26T12:15:28.609Z,62.08
2023-02-26T12:18:11.241Z,64.79
2023-02-26T12:21:02.887Z,65.71
2023-02-26T12:23:51.225Z,67.99
2023-02-26T12:26:33.938Z,69.20
2023-02-26T12:29:38.491Z,61.72
2023-02-26T12:32:16.055Z,61.62
2023-02-26T12:35:02.145Z,61.74
2023-02-26T12:38:08.807Z,60.09
2023-02-26T12:41:05.509Z,57.91
2023-02-26T12:43:44.473Z,56.97
2023-02-26T12:46:33.047Z,57.32
2023-02-26T12:49:47.568Z,58.04
2023-02-26T12:52:36.097Z,59.80
2023-02-26T12:55:09.604Z,59.26
2023-02-26T12:57:58.913Z,58.70
2023-02-26T13:00:35.209Z,58.21
2023-02-26T13:03:25.199Z,58.49
2023-02-26T13:06:36.090Z,57.55
2023-02-26T13:09:21.732Z,56.53
2023-02-26T13:12:47.461Z,55.47
2023-02-26T13:15:26.171Z,57.74
2023-02-26T13:18:17.698Z,57.27
2023-02-26T13:20:58.466Z,58.74
2023-02-26T13:23:37.317Z,58.10
2023-02-26T13:26:08.975Z,57.85
2023-02-26T13:28:41.026Z,59.72
2023-02-26T13:31:19.002Z,57.69
2023-02-26T13:33:48.146Z,56.67
2023-02-26T13:36:16.814Z,57.35
2023-02-26T13:39:04.711Z,55.50
2023-02-26T13:41:57.596Z,56.03
2023-02-26T13:44:37.344Z,56.64
2023-02-26T13:47:10.842Z,57.28
2023-02-26T13:49:45.892Z,56.85
2023-02-26T13:52:25.488Z,55.78
2023-02-26T13:54:53.652Z,58.20
2023-02-26T13:57:32.566Z,59.54
2023-02-26T14:00:16.341Z,59.00
2023-02-26T14:02:50.006Z,58.79
2023-02-26T14:05:48.917Z,59.32
2023-02-26T14:08:15.984Z,60.82
2023-02-26T14:10:55.159Z,63.14
2023-02-26T14:13:36.939Z,61.53
2023-02-26T14:16:09.751Z,57.25
2023-02-26T14:18:47.153Z,57.76
2023-02-26T14:21:32.649Z,55.15
2023-02-26T14:24:06.631Z,54.29
2023-02-26T14:26:36.900Z,53.36
2023-02-26T14:29:06.533Z,53.55
2023-02-26T14:32:06.755Z,54.16
2023-02-26T14:34:55.323Z,54.26
2023-02-26T14:37:25.001Z,53.12
2023-02-26T14:39:59.548Z,52.35
2023-02-26T14:42:37.241Z,51.61
2023-02-26T14:45:16.334Z,52.44
2023-02-26T14:47:48.547Z,53.08
2023-02-26T14:50:19.087Z,54.75
2023-02-26T14:53:22.133Z,53.88
2023-02-26T14:56:02.629Z,52.24
2023-02-26T14:58:58.701Z,52.89
2023-02-26T15:01:25.785Z,54.06
2023-02-26T15:04:37.083Z,55.37
2023-02-26T15:07:28.992Z,54.28
2023-02-26T15:10:23.777Z,51.68
2023-02-26T15:13:25.777Z,48.66
2023-02-26T15:16:05.060Z,47.38
2023-02-26T15:18:48.895Z,45.97
2023-02-26T15:21:57.603Z,47.57
2023-02-26T15:24:24.844Z,47.58
2023-02-26T15:26:54.625Z,49.25
2023-02-26T15:29:28.860Z,50.25
2023-02-26T15:32:04.127Z,49.22
2023-02-26T15:34:33.884Z,49.77
2023-02-26T15:37:01.545Z,50.03
2023-02-26T15:39:29.198Z,50.44
2023-02-26T15:41:57.697Z,49.13
2023-02-26T15:44:32.829Z,50.26
2023-02-26T15:47:02.088Z,49.85
2023-02-26T15:49:35.463Z,51.09
2023-02-26T15:52:05.519Z,50.76
2023-02-26T15:55:00.561Z,50.91
2023-02-26T15:57:29.559Z,51.10
2023-02-26T16:00:16.837Z,51.10
2023-02-26T16:02:45.504Z,52.62
2023-02-26T16:05:16.353Z,56.15
2023-02-26T16:07:43.403Z,57.96
2023-02-26T16:10:38.660Z,61.11
2023-02-26T16:13:11.115Z,60.46
2023-02-26T16:15:39.881Z,58.82
2023-02-26T16:18:12.170Z,56.85
2023-02-26T16:20:44.196Z,55.06
2023-02-26T16:23:16.481Z,53.08
2023-02-26T16:25:54.268Z,51.31
2023-02-26T16:28:28.546Z,51.65
2023-02-26T16:31:00.885Z,51.15
2023-02-26T16:33:33.357Z,51.53
2023-02-26T16:36:14.408Z,51.96
2023-02-26T16:38:44.240Z,53.69
2023-02-26T16:41:12.446Z,56.22
2023-02-26T16:43:45.436Z,61.21
2023-02-26T16:46:22.749Z,65.89
2023-02-26T16:49:02.335Z,70.44
2023-02-26T16:51:32.640Z,76.78
2023-02-26T16:54:04.915Z,83.93
2023-02-26T16:56:35.343Z,90.15
2023-02-26T16:59:04.869Z,94.37
2023-02-26T17:01:37.931Z,96.99
2023-02-26T17:04:07.421Z,100.00
2023-02-26T17:06:39.044Z,100.00
2023-02-26T17:09:10.402Z,100.00
2023-02-26T17:11:44.389Z,100.00
2023-02-26T17:14:22.972Z,100.00
2023-02-26T17:16:51.248Z,100.00
2023-02-26T17:19:19.223Z,100.00
2023-02-26T17:21:49.765Z,100.00
2023-02-26T17:24:20.394Z,100.00
2023-02-26T17:26:48.147Z,100.00
2023-02-26T17:29:19.712Z,100.00
2023-02-26T17:31:47.034Z,100.00
2023-02-26T17:34:14.283Z,100.00
2023-02-26T17:36:41.387Z,100.00
2023-02-26T17:39:13.002Z,100.00
2023-02-26T17:41:43.610Z,100.00
2023-02-26T17:44:10.753Z,100.00
2023-02-26T17:46:37.998Z,100.00
2023-02-26T17:49:05.049Z,100.00
2023-02-26T17:51:32.164Z,100.00
2023-02-26T17:53:59.338Z,100.00
2023-02-26T17:56:30.066Z,100.00
2023-02-26T17:58:59.258Z,100.00
2023-02-26T18:01:30.011Z,100.00
2023-02-26T18:04:00.779Z,100.00
2023-02-26T18:06:33.244Z,100.00
2023-02-26T18:09:01.633Z,100.00
2023-02-26T18:11:29.166Z,100.00
2023-02-26T18:13:57.656Z,100.00
2023-02-26T18:16:34.151Z,100.00
2023-02-26T18:19:02.039Z,100.00
2023-02-26T18:21:29.458Z,100.00
2023-02-26T18:23:57.885Z,100.00
2023-02-26T18:26:28.655Z,100.00
2023-02-26T18:28:55.868Z,100.00
2023-02-26T18:31:24.792Z,100.00
2023-02-26T18:33:52.102Z,100.00
2023-02-26T18:36:35.581Z,100.00
2023-02-26T18:39:05.161Z,100.00
2023-02-26T18:41:32.770Z,100.00
2023-02-26T18:44:00.654Z,100.00
2023-02-26T18:46:30.009Z,100.00
2023-02-26T18:48:57.639Z,100.00
2023-02-26T18:51:25.252Z,100.00
2023-02-26T18:53:53.237Z,100.00
2023-02-26T18:56:20.258Z,100.00
2023-02-26T18:58:47.363Z,100.00
2023-02-26T19:01:14.519Z,100.00
2023-02-26T19:03:41.552Z,100.00
2023-02-26T19:06:09.126Z,100.00
2023-02-26T19:08:36.346Z,100.00
2023-02-26T19:11:03.481Z,100.00
2023-02-26T19:13:30.773Z,100.00
2023-02-26T19:15:58.861Z,100.00
2023-02-26T19:18:26.295Z,100.00
2023-02-26T19:20:53.581Z,100.00
2023-02-26T19:23:20.720Z,100.00
2023-02-26T19:25:48.104Z,100.00
2023-02-26T19:28:15.223Z,100.00
2023-02-26T19:30:42.426Z,100.00
2023-02-26T19:33:09.571Z,100.00
2023-02-26T19:35:36.764Z,100.00
2023-02-26T19:38:03.998Z,100.00
2023-02-26T19:40:31.105Z,100.00
2023-02-26T19:42:58.918Z,100.00
2023-02-26T19:45:26.065Z,100.00
2023-02-26T19:47:53.203Z,100.00
2023-02-26T19:50:22.442Z,100.00
2023-02-26T19:52:49.943Z,100.00
2023-02-26T19:55:17.504Z,100.00
2023-02-26T19:57:44.611Z,100.00
2023-02-26T20:00:14.166Z,100.00
2023-02-26T20:02:41.641Z,100.00
2023-02-26T20:05:11.561Z,100.00
2023-02-26T20:07:38.716Z,100.00
2023-02-26T20:10:06.371Z,100.00
2023-02-26T20:12:33.407Z,100.00
2023-02-26T20:15:00.654Z,100.00
2023-02-26T20:17:32.111Z,100.00
2023-02-26T20:19:59.210Z,100.00
2023-02-26T20:22:26.542Z,100.00
2023-02-26T20:24:54.917Z,100.00
2023-02-26T20:27:22.074Z,100.00
2023-02-26T20:29:50.887Z,100.00
2023-02-26T20:32:18.223Z,100.00
2023-02-26T20:34:45.364Z,100.00
2023-02-26T20:37:12.368Z,100.00
2023-02-26T20:39:39.435Z,100.00
2023-02-26T20:42:06.629Z,100.00
2023-02-26T20:44:33.658Z,100.00
2023-02-26T20:47:02.595Z,100.00
2023-02-26T20:49:30.378Z,100.00
2023-02-26T20:51:58.537Z,100.00
2023-02-26T20:54:25.756Z,100.00
2023-02-26T20:56:53.323Z,100.00
2023-02-26T20:59:20.528Z,100.00
2023-02-26T21:01:51.205Z,100.00
2023-02-26T21:04:18.634Z,100.00
2023-02-26T21:06:45.823Z,100.00
2023-02-26T21:09:13.487Z,100.00
2023-02-26T21:11:41.698Z,100.00
2023-02-26T21:14:09.565Z,100.00
2023-02-26T21:16:37.339Z,100.00
2023-02-26T21:19:04.575Z,100.00
2023-02-26T21:21:31.907Z,100.00
2023-02-26T21:23:59.164Z,100.00
2023-02-26T21:26:28.483Z,100.00
2023-02-26T21:28:55.649Z,100.00
2023-02-26T21:31:22.747Z,100.00
2023-02-26T21:33:49.928Z,100.00
2023-02-26T21:36:16.968Z,100.00
2023-02-26T21:38:44.251Z,100.00
2023-02-26T21:41:11.619Z,100.00
2023-02-26T21:43:39.232Z,100.00
2023-02-26T21:46:06.623Z,100.00
2023-02-26T21:48:33.977Z,100.00
2023-02-26T21:51:04.715Z,100.00
2023-02-26T21:53:31.893Z,100.00
2023-02-26T21:55:58.978Z,100.00
2023-02-26T21:58:26.359Z,100.00
2023-02-26T22:00:53.773Z,100.00
2023-02-26T22:03:20.824Z,100.00
2023-02-26T22:05:51.325Z,100.00
2023-02-26T22:08:19.589Z,100.00
2023-02-26T22:10:46.900Z,100.00
2023-02-26T22:13:14.922Z,100.00
2023-02-26T22:15:42.635Z,100.00
2023-02-26T22:18:09.784Z,100.00
2023-02-26T22:20:37.034Z,100.00
2023-02-26T22:23:04.730Z,100.00
2023-02-26T22:25:31.968Z,100.00
2023-02-26T22:27:59.624Z,100.00
2023-02-26T22:30:27.579Z,100.00
2023-02-26T22:32:55.131Z,100.00
2023-02-26T22:35:22.279Z,100.00
2023-02-26T22:37:49.403Z,100.00
2023-02-26T22:40:16.651Z,100.00
2023-02-26T22:42:44.256Z,100.00
2023-02-26T22:45:13.401Z,100.00
2023-02-26T22:47:40.535Z,100.00
2023-02-26T22:50:07.781Z,100.00
2023-02-26T22:52:34.843Z,100.00
2023-02-26T22:55:02.115Z,100.00
2023-02-26T22:57:29.298Z,100.00
2023-02-26T22:59:56.312Z,100.00
2023-02-26T23:02:24.358Z,100.00
2023-02-26T23:04:51.519Z,100.00
2023-02-26T23:07:18.645Z,100.00
2023-02-26T23:09:45.705Z,100.00
2023-02-26T23:12:12.726Z,100.00
2023-02-26T23:14:40.201Z,100.00
2023-02-26T23:17:08.731Z,100.00
2023-02-26T23:19:36.752Z,100.00
2023-02-26T23:22:03.910Z,100.00
2023-02-26T23:24:30.975Z,100.00
2023-02-26T23:26:58.821Z,100.00
2023-02-26T23:29:25.929Z,100.00
2023-02-26T23:31:53.171Z,100.00
2023-02-26T23:34:20.348Z,100.00
2023-02-26T23:36:47.416Z,100.00
2023-02-26T23:39:15.336Z,100.00
2023-02-26T23:41:42.388Z,100.00
2023-02-26T23:44:09.512Z,100.00
2023-02-26T23:46:37.542Z,100.00
2023-02-26T23:49:04.710Z,100.00
2023-02-26T23:51:31.740Z,100.00
2023-02-26T23:53:58.747Z,100.00
2023-02-26T23:56:25.915Z,100.00
2023-02-26T23:58:53.099Z,100.00
